Time;durP1;ratioP1;P1;durP2;ratioP2;P2;SDS_P1;SDS_P2;PMS_P1;PMS_P2;Temp;Humidity;BMP_temperature;BMP_pressure;BME280_temperature;BME280_humidity;BME280_pressure;Samples;Min_cycle;Max_cycle;Signal;HPM_P1;HPM_P2
2022/12/09 00:01:35;;;;;;;33.92;30.27;;;0.90;99.90;;;;;;5072905;28;20032;-78
2022/12/09 00:04:00;;;;;;;30.42;27.40;;;0.90;99.90;;;;;;5107664;28;20035;-78
2022/12/09 00:06:28;;;;;;;33.90;30.13;;;0.90;99.90;;;;;;5072470;28;20458;-78
2022/12/09 00:08:55;;;;;;;31.92;28.60;;;0.90;99.90;;;;;;5107629;28;20035;-78
2022/12/09 00:11:22;;;;;;;35.38;31.67;;;0.90;99.90;;;;;;5070476;28;20028;-78
2022/12/09 00:13:49;;;;;;;38.15;30.73;;;0.90;99.90;;;;;;5072663;28;20028;-77
2022/12/09 00:16:16;;;;;;;35.92;26.27;;;1.00;99.90;;;;;;5088605;28;20027;-78
2022/12/09 00:18:42;;;;;;;33.42;28.10;;;1.00;99.90;;;;;;5088634;28;20102;-78
2022/12/09 00:21:22;;;;;;;37.80;28.95;;;1.10;99.90;;;;;;5107717;28;20024;-78
2022/12/09 00:23:49;;;;;;;28.85;24.40;;;1.10;99.90;;;;;;5073036;28;20024;-78
2022/12/09 00:26:16;;;;;;;35.45;28.73;;;1.00;99.90;;;;;;5068943;28;20020;-78
2022/12/09 00:28:43;;;;;;;28.95;25.88;;;0.90;99.90;;;;;;5103952;28;20032;-78
2022/12/09 00:31:12;;;;;;;27.90;24.80;;;0.80;99.90;;;;;;5072721;28;20039;-78
2022/12/09 00:33:38;;;;;;;36.75;28.55;;;0.80;99.90;;;;;;5089687;28;20028;-78
2022/12/09 00:36:09;;;;;;;28.55;25.67;;;0.80;99.90;;;;;;5072346;28;20035;-78
2022/12/09 00:38:35;;;;;;;29.17;25.92;;;0.80;99.90;;;;;;5089428;28;20043;-78
2022/12/09 00:41:01;;;;;;;34.53;29.48;;;0.80;99.90;;;;;;5072775;28;20024;-78
2022/12/09 00:43:27;;;;;;;32.78;29.42;;;0.80;99.90;;;;;;5072575;28;20028;-78
2022/12/09 00:45:53;;;;;;;29.83;26.92;;;0.90;99.90;;;;;;5068603;28;20021;-78
2022/12/09 00:48:19;;;;;;;29.98;26.05;;;0.90;99.90;;;;;;5087084;28;20036;-78
2022/12/09 00:50:45;;;;;;;31.35;27.75;;;0.90;99.90;;;;;;5052162;28;20084;-78
2022/12/09 00:53:11;;;;;;;27.48;24.70;;;0.90;99.90;;;;;;5087100;28;20107;-78
2022/12/09 00:55:38;;;;;;;28.70;25.27;;;0.90;99.90;;;;;;5093451;28;20039;-78
2022/12/09 00:58:05;;;;;;;29.27;25.90;;;1.00;99.90;;;;;;5088919;28;20029;-78
2022/12/09 01:00:31;;;;;;;28.77;25.85;;;0.90;99.90;;;;;;5055734;28;20032;-78
2022/12/09 01:02:57;;;;;;;30.00;26.85;;;0.90;99.90;;;;;;5072123;28;20039;-78
2022/12/09 01:05:23;;;;;;;26.80;22.00;;;0.90;99.90;;;;;;5106767;28;20024;-78
2022/12/09 01:07:49;;;;;;;33.20;27.20;;;1.00;99.90;;;;;;5106742;28;20043;-78
2022/12/09 01:10:15;;;;;;;36.42;25.85;;;0.90;99.90;;;;;;5088602;28;20036;-78
2022/12/09 01:12:41;;;;;;;29.00;25.90;;;0.90;99.90;;;;;;5072005;28;20048;-78
2022/12/09 01:15:09;;;;;;;31.88;28.27;;;0.90;99.90;;;;;;5106573;28;20030;-78
2022/12/09 01:17:36;;;;;;;28.33;25.40;;;0.80;99.90;;;;;;5051781;28;20035;-78
2022/12/09 01:20:03;;;;;;;30.13;24.05;;;0.90;99.90;;;;;;5068483;28;20052;-78
2022/12/09 01:22:29;;;;;;;32.45;27.95;;;0.90;99.90;;;;;;5068573;28;20036;-78
2022/12/09 01:24:56;;;;;;;30.27;27.45;;;0.90;99.90;;;;;;5068414;28;20100;-78
2022/12/09 01:27:23;;;;;;;26.88;24.40;;;0.90;99.90;;;;;;5088153;28;20032;-78
2022/12/09 01:29:48;;;;;;;28.77;26.13;;;0.90;99.90;;;;;;5088519;28;20044;-78
2022/12/09 01:32:14;;;;;;;29.30;26.23;;;0.90;99.90;;;;;;5106175;28;20036;-78
2022/12/09 01:34:40;;;;;;;37.72;29.15;;;0.90;99.90;;;;;;5071822;28;20024;-78
2022/12/09 01:37:06;;;;;;;35.42;29.42;;;1.00;99.90;;;;;;5087970;28;20052;-78
2022/12/09 01:39:32;;;;;;;33.13;28.35;;;1.00;99.90;;;;;;5071772;28;20147;-78
2022/12/09 01:42:02;;;;;;;36.17;27.02;;;1.10;99.90;;;;;;5071644;28;20031;-78
2022/12/09 01:44:30;;;;;;;29.48;26.42;;;1.10;99.90;;;;;;5070669;28;20061;-78
2022/12/09 01:46:59;;;;;;;32.95;27.65;;;1.10;99.90;;;;;;5067704;28;20028;-78
2022/12/09 01:49:37;;;;;;;34.35;31.10;;;1.10;99.90;;;;;;5068017;28;20039;-78
2022/12/09 01:52:17;;;;;;;33.38;27.08;;;1.20;99.90;;;;;;5067870;28;20107;-78
2022/12/09 01:54:45;;;;;;;36.13;29.50;;;1.20;99.90;;;;;;5051289;28;20028;-78
2022/12/09 01:57:11;;;;;;;36.65;29.25;;;1.20;99.90;;;;;;5076012;28;20092;-78
2022/12/09 01:59:37;;;;;;;30.45;26.80;;;1.20;99.90;;;;;;5071311;28;20028;-78
2022/12/09 02:02:07;;;;;;;30.80;27.63;;;1.30;99.90;;;;;;5087928;28;20035;-78
2022/12/09 02:04:38;;;;;;;33.43;29.87;;;1.30;99.90;;;;;;5088629;28;20032;-78
2022/12/09 02:07:08;;;;;;;33.22;29.63;;;1.30;99.90;;;;;;5084537;28;20287;-78
2022/12/09 02:09:35;;;;;;;;;;;1.40;99.90;;;;;;5051619;28;20097;-78
2022/12/09 02:12:32;;;;;;;29.17;26.05;;;1.40;99.90;;;;;;5067994;28;20017;-78
2022/12/09 02:15:08;;;;;;;30.70;27.50;;;1.30;99.90;;;;;;5070560;28;20020;-78
2022/12/09 02:17:51;;;;;;;33.17;26.67;;;1.20;99.90;;;;;;5087735;28;20016;-78
2022/12/09 02:20:30;;;;;;;30.95;26.75;;;1.20;99.90;;;;;;5087835;28;20054;-78
2022/12/09 02:23:05;;;;;;;29.88;26.83;;;1.20;99.90;;;;;;5071428;28;20024;-78
2022/12/09 02:25:40;;;;;;;32.75;29.35;;;1.20;99.90;;;;;;5087590;28;20032;-78
2022/12/09 02:28:22;;;;;;;31.10;27.23;;;1.20;99.90;;;;;;5087610;28;20118;-78
2022/12/09 02:31:09;;;;;;;36.33;32.00;;;1.50;99.90;;;;;;5087559;28;20181;-78
2022/12/09 02:33:58;;;;;;;35.17;29.58;;;1.30;99.90;;;;;;5087741;28;20048;-78
2022/12/09 02:36:29;;;;;;;27.87;24.43;;;1.30;99.90;;;;;;5087227;28;20031;-77
2022/12/09 02:38:57;;;;;;;33.30;29.73;;;1.30;99.90;;;;;;5087327;28;20035;-78
2022/12/09 02:41:28;;;;;;;37.90;32.28;;;1.30;99.90;;;;;;5070934;28;20024;-78
2022/12/09 02:44:07;;;;;;;39.83;28.85;;;1.30;99.90;;;;;;5087630;28;20028;-78
2022/12/09 02:46:35;;;;;;;24.33;21.75;;;1.30;99.90;;;;;;5087239;28;20031;-78
2022/12/09 02:49:04;;;;;;;34.70;29.05;;;1.30;99.90;;;;;;5071094;28;20124;-78
2022/12/09 02:51:33;;;;;;;36.10;31.35;;;1.40;99.90;;;;;;5087487;28;20023;-78
2022/12/09 02:54:10;;;;;;;36.00;30.63;;;1.40;99.90;;;;;;5105810;28;20034;-78
2022/12/09 02:56:39;;;;;;;34.50;31.08;;;1.40;99.90;;;;;;5090327;28;20028;-78
2022/12/09 02:59:05;;;;;;;40.17;29.83;;;1.40;99.90;;;;;;5074221;28;20057;-80
2022/12/09 03:01:35;;;;;;;34.42;28.17;;;1.40;99.90;;;;;;5109309;28;20512;-78
2022/12/09 03:04:01;;;;;;;34.15;29.92;;;1.40;99.90;;;;;;5109708;28;20428;-77
2022/12/09 03:06:34;;;;;;;32.92;29.33;;;1.40;99.90;;;;;;5090794;28;20111;-78
2022/12/09 03:09:07;;;;;;;39.22;32.08;;;1.30;99.90;;;;;;5090901;28;20032;-77
2022/12/09 03:11:34;;;;;;;38.28;28.92;;;1.20;99.90;;;;;;5091257;28;20036;-78
2022/12/09 03:14:07;;;;;;;38.13;32.72;;;1.30;99.90;;;;;;5109174;28;20032;-78
2022/12/09 03:16:43;;;;;;;32.83;29.45;;;1.30;99.90;;;;;;5090441;28;20035;-78
2022/12/09 03:19:19;;;;;;;36.22;31.50;;;1.30;99.90;;;;;;5108948;28;20105;-78
2022/12/09 03:21:48;;;;;;;34.72;29.38;;;1.40;99.90;;;;;;5090958;28;20028;-78
2022/12/09 03:24:23;;;;;;;36.65;31.88;;;1.40;99.90;;;;;;5074207;28;20035;-78
2022/12/09 03:26:51;;;;;;;35.08;30.55;;;1.40;99.90;;;;;;5108380;28;20065;-78
2022/12/09 03:29:21;;;;;;;34.42;30.60;;;1.50;99.90;;;;;;5108799;28;20474;-78
2022/12/09 03:31:49;;;;;;;35.55;30.85;;;1.40;99.90;;;;;;5108902;28;20047;-78
2022/12/09 03:34:21;;;;;;;33.30;29.63;;;1.50;99.90;;;;;;5091092;28;20425;-78
2022/12/09 03:36:52;;;;;;;39.25;30.80;;;1.40;99.90;;;;;;5090292;28;20032;-78
2022/12/09 03:39:21;;;;;;;36.47;32.30;;;1.40;99.90;;;;;;5108589;28;20031;-78
2022/12/09 03:41:52;;;;;;;39.42;27.55;;;1.50;99.90;;;;;;5090673;28;20035;-78
2022/12/09 03:44:29;;;;;;;32.40;29.02;;;1.50;99.90;;;;;;5090479;28;20046;-78
2022/12/09 03:46:57;;;;;;;38.85;32.97;;;1.50;99.90;;;;;;5069886;28;20111;-78
2022/12/09 03:49:23;;;;;;;31.33;28.05;;;1.50;99.90;;;;;;5070218;28;20107;-78
2022/12/09 03:52:12;;;;;;;37.97;30.92;;;1.50;99.90;;;;;;5053868;28;20036;-78
2022/12/09 03:54:56;;;;;;;48.08;33.58;;;1.50;99.90;;;;;;5088250;28;20029;-78
2022/12/09 03:57:22;;;;;;;40.63;29.67;;;1.50;99.90;;;;;;5089932;28;20032;-77
2022/12/09 04:00:04;;;;;;;37.65;32.58;;;1.50;99.90;;;;;;5073249;28;20024;-78
2022/12/09 04:02:38;;;;;;;43.50;32.53;;;1.50;99.90;;;;;;5091532;28;20040;-78
2022/12/09 04:05:04;;;;;;;33.45;30.20;;;1.60;99.90;;;;;;5089569;28;20036;-78
2022/12/09 04:07:30;;;;;;;34.15;30.20;;;1.50;99.90;;;;;;5072631;28;20036;-78
2022/12/09 04:09:56;;;;;;;34.80;31.13;;;1.50;99.90;;;;;;5089708;28;20051;-78
2022/12/09 04:12:22;;;;;;;34.45;30.00;;;1.50;99.90;;;;;;5073285;28;20032;-78
2022/12/09 04:14:48;;;;;;;38.33;31.83;;;1.50;99.90;;;;;;5073151;28;20074;-78
2022/12/09 04:17:14;;;;;;;36.50;30.90;;;1.60;99.90;;;;;;5089316;28;20028;-78
2022/12/09 04:19:40;;;;;;;31.40;28.00;;;1.60;99.90;;;;;;5073118;28;20100;-78
2022/12/09 04:22:06;;;;;;;41.40;32.08;;;1.60;99.90;;;;;;5073186;28;20085;-78
2022/12/09 04:24:32;;;;;;;35.58;31.55;;;1.60;99.90;;;;;;5073076;28;20486;-78
2022/12/09 04:26:58;;;;;;;38.05;28.48;;;1.60;99.90;;;;;;5107182;28;20530;-78
2022/12/09 04:29:23;;;;;;;38.17;29.73;;;1.60;99.90;;;;;;5107657;28;20032;-77
2022/12/09 04:31:52;;;;;;;42.35;31.48;;;1.60;99.90;;;;;;5107600;28;20045;-78
2022/12/09 04:34:18;;;;;;;41.42;31.38;;;1.60;99.90;;;;;;5072586;28;20032;-78
2022/12/09 04:36:43;;;;;;;45.92;31.13;;;1.60;99.90;;;;;;5071154;28;20127;-78
2022/12/09 04:39:09;;;;;;;42.70;30.00;;;1.60;99.90;;;;;;5089253;28;20040;-78
2022/12/09 04:41:35;;;;;;;36.95;30.35;;;1.60;99.90;;;;;;5089493;28;20041;-78
2022/12/09 04:44:02;;;;;;;32.15;28.75;;;1.60;99.90;;;;;;5072703;28;20131;-78
2022/12/09 04:46:28;;;;;;;42.05;30.30;;;1.60;99.90;;;;;;5072333;28;20024;-78
2022/12/09 04:48:54;;;;;;;38.70;32.75;;;1.60;99.90;;;;;;5072127;28;20044;-78
2022/12/09 04:51:20;;;;;;;41.30;30.35;;;1.60;99.90;;;;;;5072673;28;20062;-78
2022/12/09 04:53:45;;;;;;;51.13;37.72;;;1.60;99.90;;;;;;5089166;28;20032;-78
2022/12/09 04:56:17;;;;;;;41.00;33.88;;;1.70;99.90;;;;;;5089047;28;20036;-78
2022/12/09 04:58:43;;;;;;;43.38;32.95;;;1.60;99.90;;;;;;5107043;28;20101;-77
2022/12/09 05:01:12;;;;;;;40.05;32.15;;;1.60;99.90;;;;;;5088769;28;20387;-78
2022/12/09 05:03:38;;;;;;;62.72;40.03;;;1.60;99.90;;;;;;5106940;28;20038;-78
2022/12/09 05:06:13;;;;;;;51.30;38.50;;;1.50;99.90;;;;;;5072315;28;20096;-78
2022/12/09 05:08:40;;;;;;;56.28;35.17;;;1.50;99.90;;;;;;5106751;28;20035;-78
2022/12/09 05:11:09;;;;;;;52.63;40.55;;;1.60;99.90;;;;;;5072009;28;20032;-77
2022/12/09 05:13:34;;;;;;;61.13;39.80;;;1.60;99.90;;;;;;5106770;28;20036;-78
2022/12/09 05:16:02;;;;;;;48.28;38.15;;;1.60;99.90;;;;;;5055342;28;20040;-78
2022/12/09 05:18:28;;;;;;;48.08;38.60;;;1.60;99.90;;;;;;5088045;28;20032;-77
2022/12/09 05:20:54;;;;;;;60.20;39.50;;;1.60;99.90;;;;;;5069882;28;20075;-78
2022/12/09 05:23:21;;;;;;;43.70;38.55;;;1.70;99.90;;;;;;5106780;28;20473;-78
2022/12/09 05:25:47;;;;;;;48.97;36.28;;;1.60;99.90;;;;;;5106601;28;20494;-78
2022/12/09 05:28:14;;;;;;;53.40;37.90;;;1.60;99.90;;;;;;5071080;28;20043;-78
2022/12/09 05:30:40;;;;;;;55.95;38.90;;;1.60;99.90;;;;;;5070236;28;20036;-78
2022/12/09 05:33:06;;;;;;;55.63;38.90;;;1.60;99.90;;;;;;5088156;28;20097;-78
2022/12/09 05:35:31;;;;;;;67.55;42.10;;;1.60;99.90;;;;;;5071597;28;20032;-78
2022/12/09 05:37:58;;;;;;;62.42;40.92;;;1.70;99.90;;;;;;5054892;28;20055;-78
2022/12/09 05:40:24;;;;;;;68.80;42.83;;;1.60;99.90;;;;;;5060109;28;20036;-77
2022/12/09 05:42:50;;;;;;;62.10;43.72;;;1.60;99.90;;;;;;5066711;28;20048;-77
2022/12/09 05:45:16;;;;;;;59.00;39.80;;;1.70;99.90;;;;;;5075817;28;20119;-77
2022/12/09 05:47:41;;;;;;;56.83;40.95;;;1.70;99.90;;;;;;5029801;28;20027;-78
2022/12/09 05:50:08;;;;;;;59.75;42.83;;;1.70;99.90;;;;;;5064973;28;20032;-77
2022/12/09 05:52:35;;;;;;;64.28;42.15;;;1.60;99.90;;;;;;5099554;28;20040;-78
2022/12/09 05:55:06;;;;;;;53.17;39.33;;;1.70;99.90;;;;;;5080219;28;20109;-77
2022/12/09 05:57:35;;;;;;;57.92;40.70;;;1.60;99.90;;;;;;5070921;28;20106;-78
2022/12/09 06:00:03;;;;;;;40.92;27.90;;;1.60;99.90;;;;;;5071254;28;20091;-78
2022/12/09 06:02:37;;;;;;;57.05;41.20;;;1.60;99.90;;;;;;5089202;28;20041;-78
2022/12/09 06:05:03;;;;;;;71.63;42.53;;;1.60;99.90;;;;;;5087680;28;20474;-78
2022/12/09 06:07:30;;;;;;;54.58;44.17;;;1.70;99.90;;;;;;5087840;28;20032;-78
2022/12/09 06:09:56;;;;;;;67.05;46.22;;;1.60;99.90;;;;;;5087440;28;20489;-78
2022/12/09 06:12:21;;;;;;;63.95;44.75;;;1.60;99.90;;;;;;5037284;28;20028;-78
2022/12/09 06:14:47;;;;;;;66.63;41.85;;;1.50;99.90;;;;;;5091868;28;20470;-78
2022/12/09 06:17:14;;;;;;;68.38;42.80;;;1.60;99.90;;;;;;5087742;28;20025;-78
2022/12/09 06:19:40;;;;;;;57.45;42.42;;;1.50;99.90;;;;;;5087011;28;20083;-78
2022/12/09 06:22:06;;;;;;;52.92;41.33;;;1.50;99.90;;;;;;5105637;28;20042;-78
2022/12/09 06:24:33;;;;;;;73.15;49.30;;;1.50;99.90;;;;;;5052046;28;20123;-78
2022/12/09 06:26:58;;;;;;;71.47;42.88;;;1.60;99.90;;;;;;5086922;28;20059;-78
2022/12/09 06:29:24;;;;;;;56.03;41.05;;;1.60;99.90;;;;;;5069323;28;20040;-78
2022/12/09 06:31:50;;;;;;;66.30;46.97;;;1.60;99.90;;;;;;5070666;28;20020;-78
2022/12/09 06:34:16;;;;;;;57.40;44.10;;;1.60;99.90;;;;;;5101056;28;20028;-78
2022/12/09 06:36:42;;;;;;;64.95;44.75;;;1.60;99.90;;;;;;5067415;28;20045;-78
2022/12/09 06:39:28;;;;;;;64.68;45.47;;;1.70;99.90;;;;;;5085476;28;20059;-78
2022/12/09 06:41:54;;;;;;;60.97;42.97;;;;;;;;;;5068437;28;20041;-78
2022/12/09 06:44:22;;;;;;;55.35;42.97;;;;;;;;;;5080684;28;20078;-78
2022/12/09 06:46:49;;;;;;;52.95;44.08;;;1.60;99.90;;;;;;5089195;28;20020;-78
2022/12/09 06:49:15;;;;;;;75.78;45.72;;;;;;;;;;5087787;28;20044;-78
2022/12/09 06:51:41;;;;;;;60.30;44.40;;;;;;;;;;5088957;28;20028;-78
2022/12/09 06:54:08;;;;;;;71.63;52.55;;;;;;;;;;5088732;28;20036;-78
2022/12/09 06:56:35;;;;;;;67.03;48.45;;;;;;;;;;5088884;28;20040;-78
2022/12/09 06:59:05;;;;;;;67.38;47.58;;;1.60;99.90;;;;;;5071130;28;20031;-78
2022/12/09 07:01:35;;;;;;;;;;;1.50;99.90;;;;;;5088548;28;20028;-78
2022/12/09 07:04:03;;;;;;;76.68;45.60;;;1.70;99.90;;;;;;5087239;28;19908;-78
2022/12/09 07:06:35;;;;;;;80.50;48.70;;;1.70;99.90;;;;;;5087282;28;20020;-78
2022/12/09 07:09:06;;;;;;;59.45;46.65;;;1.70;99.90;;;;;;5087336;28;20059;-78
2022/12/09 07:11:33;;;;;;;107.28;70.93;;;;;;;;;;5088228;28;20032;-78
2022/12/09 07:13:59;;;;;;;69.63;46.50;;;;;;;;;;5088084;28;20021;-78
2022/12/09 07:16:27;;;;;;;61.13;44.80;;;1.70;99.90;;;;;;5088589;28;20021;-78
2022/12/09 07:18:53;;;;;;;76.07;48.55;;;;;;;;;;5088740;28;20084;-78
2022/12/09 07:21:20;;;;;;;69.95;49.25;;;1.70;99.90;;;;;;5088293;28;20027;-78
2022/12/09 07:23:47;;;;;;;61.42;43.85;;;;;;;;;;5087378;28;20046;-78
2022/12/09 07:26:14;;;;;;;75.38;44.58;;;1.80;99.90;;;;;;5088483;28;20043;-78
2022/12/09 07:28:41;;;;;;;54.47;40.97;;;1.70;99.90;;;;;;5087988;28;20029;-78
2022/12/09 07:31:26;;;;;;;53.00;43.53;;;1.80;99.90;;;;;;5088033;28;20066;-78
2022/12/09 07:33:53;;;;;;;59.65;39.92;;;1.80;99.90;;;;;;5088067;28;20042;-78
2022/12/09 07:36:21;;;;;;;59.72;45.45;;;1.80;99.90;;;;;;5088507;28;20513;-78
2022/12/09 07:38:48;;;;;;;68.05;42.72;;;;;;;;;;5089678;28;20032;-78
2022/12/09 07:41:17;;;;;;;55.33;41.78;;;;;;;;;;5107510;28;20055;-78
2022/12/09 07:43:44;;;;;;;63.40;42.75;;;1.90;99.90;;;;;;5070213;28;20031;-78
2022/12/09 07:46:12;;;;;;;62.10;42.90;;;1.90;99.90;;;;;;5086071;28;20036;-78
2022/12/09 07:48:38;;;;;;;62.30;41.83;;;;;;;;;;5108007;28;20034;-78
2022/12/09 07:51:05;;;;;;;71.00;46.15;;;;;;;;;;5108452;28;20051;-78
2022/12/09 07:53:33;;;;;;;52.45;41.20;;;1.90;99.90;;;;;;5089569;28;20032;-78
2022/12/09 07:56:04;;;;;;;67.78;43.35;;;1.80;99.90;;;;;;5107919;28;20032;-78
2022/12/09 07:58:32;;;;;;;66.85;41.92;;;;;;;;;;5107754;28;20069;-78
2022/12/09 08:01:06;;;;;;;61.50;41.67;;;1.80;99.90;;;;;;5108043;28;20451;-78
2022/12/09 08:03:32;;;;;;;56.90;43.10;;;1.80;99.90;;;;;;5089548;28;20036;-78
2022/12/09 08:05:58;;;;;;;59.92;44.47;;;1.90;99.90;;;;;;5089125;28;20032;-78
2022/12/09 08:08:25;;;;;;;69.90;45.70;;;1.80;99.90;;;;;;5089526;28;20049;-78
2022/12/09 08:10:51;;;;;;;66.38;49.72;;;;;;;;;;5089051;28;20024;-78
2022/12/09 08:13:18;;;;;;;62.50;42.85;;;;;;;;;;5107633;28;20134;-78
2022/12/09 08:15:44;;;;;;;52.50;40.85;;;;;;;;;;5107318;28;20024;-78
2022/12/09 08:18:11;;;;;;;67.50;41.53;;;;;;;;;;5071604;28;20059;-78
2022/12/09 08:20:38;;;;;;;66.35;44.65;;;;;;;;;;5107645;28;20116;-78
2022/12/09 08:23:04;;;;;;;56.60;38.28;;;;;;;;;;5073128;28;20047;-78
2022/12/09 08:25:31;;;;;;;67.60;41.13;;;;;;;;;;5089745;28;20028;-78
2022/12/09 08:27:57;;;;;;;59.65;40.25;;;2.10;99.90;;;;;;5106859;28;20040;-78
2022/12/09 08:30:24;;;;;;;56.08;39.50;;;;;;;;;;5107075;28;20066;-78
2022/12/09 08:32:49;;;;;;;60.83;39.65;;;2.00;99.90;;;;;;5107194;28;20028;-78
2022/12/09 08:35:15;;;;;;;47.47;38.95;;;2.50;99.90;;;;;;5089188;28;20044;-78
2022/12/09 08:37:42;;;;;;;51.50;40.28;;;1.90;99.90;;;;;;5071836;28;20040;-77
2022/12/09 08:40:09;;;;;;;53.72;40.00;;;1.90;99.90;;;;;;5107045;28;20391;-78
2022/12/09 08:42:35;;;;;;;56.35;40.88;;;;;;;;;;5071899;28;20043;-78
2022/12/09 08:45:01;;;;;;;49.88;38.95;;;;;;;;;;5107252;28;20036;-78
2022/12/09 08:47:28;;;;;;;46.38;33.95;;;1.90;99.90;;;;;;5107035;28;20074;-78
2022/12/09 08:49:54;;;;;;;47.80;33.42;;;;;;;;;;5105976;28;20040;-78
2022/12/09 08:52:20;;;;;;;47.08;33.72;;;;;;;;;;5088785;28;20039;-78
2022/12/09 08:54:46;;;;;;;57.03;37.95;;;;;;;;;;5106643;28;20043;-78
2022/12/09 08:57:13;;;;;;;47.92;32.13;;;;;;;;;;5106546;28;20095;-78
2022/12/09 08:59:40;;;;;;;39.47;27.60;;;;;;;;;;5088848;28;20054;-78
2022/12/09 09:02:06;;;;;;;39.28;28.30;;;;;;;;;;5068294;28;20047;-78
2022/12/09 09:04:33;;;;;;;34.63;23.92;;;;;;;;;;5105717;28;20032;-78
2022/12/09 09:06:59;;;;;;;25.48;22.70;;;;;;;;;;5088857;28;20039;-78
2022/12/09 09:09:25;;;;;;;33.80;23.65;;;;;;;;;;5088163;28;20434;-78
2022/12/09 09:11:51;;;;;;;37.10;27.42;;;;;;;;;;5105486;28;20032;-78
2022/12/09 09:14:17;;;;;;;36.08;27.20;;;2.40;99.90;;;;;;5071792;28;20034;-78
2022/12/09 09:16:44;;;;;;;39.65;28.75;;;2.60;99.90;;;;;;5071660;28;20028;-78
2022/12/09 09:19:20;;;;;;;41.97;29.58;;;2.60;99.90;;;;;;5106411;28;20020;-78
2022/12/09 09:21:46;;;;;;;35.50;28.08;;;;;;;;;;5106439;28;20039;-78
2022/12/09 09:24:15;;;;;;;41.92;28.27;;;2.40;99.90;;;;;;5106644;28;20020;-78
2022/12/09 09:26:42;;;;;;;37.80;30.75;;;2.20;99.90;;;;;;5087628;28;20035;-78
2022/12/09 09:29:10;;;;;;;42.38;27.25;;;2.30;99.90;;;;;;5106017;28;20055;-78
2022/12/09 09:31:37;;;;;;;44.58;25.58;;;;;;;;;;5106195;28;20131;-78
2022/12/09 09:34:03;;;;;;;33.95;25.08;;;;;;;;;;5087935;28;20020;-78
2022/12/09 09:36:30;;;;;;;30.35;24.45;;;2.30;99.90;;;;;;5087345;28;20048;-77
2022/12/09 09:38:57;;;;;;;37.35;29.02;;;2.50;99.90;;;;;;5106446;28;20046;-78
2022/12/09 09:42:01;;;;;;;35.53;29.38;;;2.50;99.90;;;;;;5071342;28;20059;-77
2022/12/09 09:44:44;;;;;;;45.85;29.50;;;2.30;99.90;;;;;;5003862;28;20054;-77
2022/12/09 09:47:21;;;;;;;41.15;29.85;;;2.40;99.90;;;;;;5092287;28;20048;-78
2022/12/09 09:50:06;;;;;;;38.15;28.65;;;2.30;99.90;;;;;;5082383;28;20055;-78
2022/12/09 09:52:36;;;;;;;31.42;26.90;;;2.40;99.90;;;;;;5088223;28;20032;-78
2022/12/09 09:55:11;;;;;;;;;;;2.30;99.90;;;;;;5106128;28;20049;-78
2022/12/09 09:57:52;;;;;;;44.42;30.98;;;2.30;99.90;;;;;;5087963;28;19915;-77
2022/12/09 10:00:20;;;;;;;37.15;26.77;;;;;;;;;;5105813;28;20453;-78
2022/12/09 10:02:55;;;;;;;37.22;28.77;;;2.40;99.90;;;;;;5105890;28;20024;-78
2022/12/09 10:05:31;;;;;;;39.70;26.65;;;4.10;99.90;;;;;;5104986;28;20024;-78
2022/12/09 10:08:18;;;;;;;33.00;25.58;;;2.60;99.90;;;;;;5105899;28;20028;-78
2022/12/09 10:10:50;;;;;;;33.85;27.17;;;2.40;99.90;;;;;;5070558;28;20031;-78
2022/12/09 10:13:24;;;;;;;31.75;24.58;;;2.40;99.90;;;;;;5105619;28;20024;-78
2022/12/09 10:16:14;;;;;;;32.92;25.67;;;2.60;99.90;;;;;;5078205;28;20025;-78
2022/12/09 10:18:55;;;;;;;;;;;2.40;99.90;;;;;;5088212;28;20095;-78
2022/12/09 10:21:21;;;;;;;36.72;28.45;;;;;;;;;;5087458;28;19958;-78
2022/12/09 10:23:48;;;;;;;36.95;26.10;;;2.50;99.90;;;;;;5069291;28;20043;-78
2022/12/09 10:26:32;;;;;;;40.10;29.33;;;2.40;99.90;;;;;;5080961;28;20031;-78
2022/12/09 10:29:22;;;;;;;39.28;28.92;;;2.50;99.90;;;;;;5087637;28;20024;-78
2022/12/09 10:31:48;;;;;;;34.95;26.33;;;;;;;;;;5088024;28;20035;-78
2022/12/09 10:34:15;;;;;;;47.33;30.48;;;;;;;;;;5087772;28;20032;-78
2022/12/09 10:36:44;;;;;;;36.97;27.98;;;2.60;99.90;;;;;;5086538;28;20044;-78
2022/12/09 10:39:20;;;;;;;42.58;29.10;;;3.00;99.90;;;;;;5087423;28;20032;-78
2022/12/09 10:44:36;;;;;;;50.67;30.63;;;2.40;99.90;;;;;;5087485;28;20104;-78
2022/12/09 10:47:24;;;;;;;43.40;28.25;;;2.30;99.90;;;;;;5087085;28;20024;-78
2022/12/09 10:49:52;;;;;;;35.25;27.13;;;2.20;99.90;;;;;;5105179;28;20107;-78
2022/12/09 10:52:24;;;;;;;37.20;29.45;;;2.20;99.90;;;;;;5086747;28;20024;-78
2022/12/09 10:54:50;;;;;;;44.00;33.10;;;;;;;;;;5086447;28;20024;-78
2022/12/09 10:57:17;;;;;;;34.42;27.33;;;;;;;;;;5105463;28;20028;-78
2022/12/09 11:00:05;;;;;;;31.88;25.95;;;2.50;99.90;;;;;;5105253;28;20058;-78
2022/12/09 11:02:32;;;;;;;31.23;26.15;;;2.60;99.90;;;;;;5087082;28;20059;-78
2022/12/09 11:05:26;;;;;;;34.17;30.13;;;2.70;99.90;;;;;;5086938;28;20028;-78
2022/12/09 11:07:54;;;;;;;30.42;25.48;;;2.70;99.90;;;;;;5105209;28;20067;-78
2022/12/09 11:10:24;;;;;;;32.45;28.60;;;2.70;99.90;;;;;;5086935;28;20036;-78
2022/12/09 11:13:11;;;;;;;36.30;26.23;;;2.80;99.90;;;;;;5105311;28;20027;-78
2022/12/09 11:15:42;;;;;;;31.60;25.30;;;2.80;99.90;;;;;;5086379;28;20035;-78
2022/12/09 11:18:44;;;;;;;35.05;29.25;;;2.80;99.90;;;;;;5090633;28;20028;-78
2022/12/09 11:21:45;;;;;;;46.53;31.33;;;3.80;99.90;;;;;;5108396;28;20040;-78
2022/12/09 11:24:23;;;;;;;43.25;32.90;;;2.20;99.90;;;;;;4990402;28;20044;-78
2022/12/09 11:26:49;;;;;;;44.80;33.42;;;2.20;99.90;;;;;;5095228;28;20040;-78
2022/12/09 11:29:17;;;;;;;39.30;32.45;;;2.20;99.90;;;;;;5090336;28;20064;-78
2022/12/09 11:31:44;;;;;;;41.08;32.75;;;2.20;99.90;;;;;;5108566;28;20046;-78
2022/12/09 11:34:24;;;;;;;51.25;34.65;;;2.20;99.90;;;;;;5073431;28;20030;-78
2022/12/09 11:36:53;;;;;;;41.53;32.22;;;2.30;99.90;;;;;;5090078;28;20063;-77
2022/12/09 11:39:20;;;;;;;38.78;30.67;;;;;;;;;;5090116;28;20047;-78
2022/12/09 11:42:14;;;;;;;38.78;30.75;;;2.20;99.90;;;;;;5089995;28;20028;-78
2022/12/09 11:45:23;;;;;;;35.63;31.33;;;2.30;99.90;;;;;;5108422;28;20028;-78
2022/12/09 11:47:50;;;;;;;45.67;33.55;;;2.30;99.90;;;;;;5092115;28;20039;-78
2022/12/09 11:50:23;;;;;;;45.13;33.90;;;3.30;99.90;;;;;;5089800;28;20100;-78
2022/12/09 11:53:06;;;;;;;41.03;29.55;;;2.30;99.90;;;;;;5107991;28;20023;-78
2022/12/09 11:55:34;;;;;;;47.10;33.53;;;2.40;99.90;;;;;;5108066;28;20126;-78
2022/12/09 11:58:05;;;;;;;43.55;29.33;;;2.40;99.90;;;;;;5107574;28;20052;-78
2022/12/09 12:00:47;;;;;;;41.50;30.40;;;2.30;99.90;;;;;;5089925;28;20048;-78
2022/12/09 12:03:48;;;;;;;50.58;33.95;;;2.50;99.90;;;;;;5108040;28;20050;-77
2022/12/09 12:06:22;;;;;;;38.63;26.88;;;2.60;99.90;;;;;;5044873;28;20068;-77
2022/12/09 12:09:01;;;;;;;40.25;29.73;;;2.50;99.90;;;;;;5067424;28;20032;-77
2022/12/09 12:11:35;;;;;;;36.72;27.92;;;2.60;99.90;;;;;;5089269;28;20096;-78
2022/12/09 12:14:15;;;;;;;38.22;28.02;;;2.50;99.90;;;;;;5089084;28;20017;-77
2022/12/09 12:17:01;;;;;;;;;;;2.80;99.90;;;;;;5106395;28;20046;-78
2022/12/09 12:19:34;;;;;;;38.42;26.75;;;2.40;99.90;;;;;;5107840;28;19919;-77
2022/12/09 12:22:11;;;;;;;27.73;22.15;;;2.40;99.90;;;;;;5107625;28;20028;-78
2022/12/09 12:24:37;;;;;;;30.45;23.13;;;2.50;99.90;;;;;;5072820;28;20047;-78
2022/12/09 12:27:20;;;;;;;23.65;19.83;;;2.50;99.90;;;;;;5107839;28;20032;-78
2022/12/09 12:29:49;;;;;;;23.73;19.48;;;2.50;99.90;;;;;;5089650;28;20032;-77
2022/12/09 12:32:37;;;;;;;24.25;19.80;;;2.30;99.90;;;;;;5107353;28;20024;-77
2022/12/09 12:35:24;;;;;;;25.42;22.50;;;2.20;99.90;;;;;;5072764;28;20489;-78
2022/12/09 12:37:56;;;;;;;24.30;19.02;;;2.40;99.90;;;;;;5089446;28;20068;-78
2022/12/09 12:40:34;;;;;;;26.70;21.70;;;2.50;99.90;;;;;;5089293;28;20534;-78
2022/12/09 12:47:00;;;;;;;26.52;18.17;;;2.70;99.90;;;;;;5107429;28;20028;-78
2022/12/09 12:50:04;;;;;;;31.98;22.67;;;2.90;99.90;;;;;;5084451;28;20046;-78
2022/12/09 12:52:42;;;;;;;20.88;18.70;;;3.00;99.90;;;;;;5106886;28;20023;-78
2022/12/09 12:55:29;;;;;;;30.58;24.35;;;3.00;99.90;;;;;;5088982;28;20032;-78
2022/12/09 12:58:37;;;;;;;31.90;24.92;;;3.00;99.90;;;;;;5089160;28;20039;-78
2022/12/09 13:01:11;;;;;;;31.05;17.80;;;3.10;99.90;;;;;;5072416;28;20028;-78
2022/12/09 13:03:51;;;;;;;20.23;17.55;;;3.20;99.90;;;;;;5072504;28;20039;-78
2022/12/09 13:06:20;;;;;;;22.38;15.70;;;3.20;99.90;;;;;;5107238;28;20040;-78
2022/12/09 13:08:54;;;;;;;11.85;10.65;;;3.30;99.90;;;;;;5088683;28;20035;-78
2022/12/09 13:11:28;;;;;;;18.33;16.42;;;3.20;99.90;;;;;;5088664;28;20032;-78
2022/12/09 13:14:09;;;;;;;29.48;20.52;;;3.20;99.90;;;;;;5072044;28;20028;-78
2022/12/09 13:16:39;;;;;;;22.08;16.98;;;3.30;99.90;;;;;;5106878;28;20386;-78